createdAt,value
2023-12-07T00:01:15.753Z,44.03
2023-12-07T00:03:44.219Z,38.13
2023-12-07T00:06:12.425Z,52.47
2023-12-07T00:08:40.634Z,55.50
2023-12-07T00:11:08.807Z,54.15
2023-12-07T00:13:37.285Z,41.35
2023-12-07T00:16:06.139Z,44.42
2023-12-07T00:18:35.855Z,46.90
2023-12-07T00:21:04.448Z,52.88
2023-12-07T00:23:32.737Z,53.53
2023-12-07T00:26:01.112Z,44.95
2023-12-07T00:28:29.268Z,45.97
2023-12-07T00:30:57.489Z,56.08
2023-12-07T00:33:25.875Z,49.88
2023-12-07T00:35:55.255Z,57.08
2023-12-07T00:38:23.716Z,59.80
2023-12-07T00:40:51.812Z,50.45
2023-12-07T00:43:19.992Z,54.25
2023-12-07T00:45:48.213Z,63.58
2023-12-07T00:48:17.515Z,63.70
2023-12-07T00:50:45.872Z,63.05
2023-12-07T00:53:16.045Z,61.33
2023-12-07T00:55:44.244Z,53.20
2023-12-07T00:58:12.432Z,63.85
2023-12-07T01:00:42.353Z,64.15
2023-12-07T01:03:10.844Z,66.32
2023-12-07T01:05:39.155Z,65.55
2023-12-07T01:08:07.446Z,78.18
2023-12-07T01:10:37.241Z,67.30
2023-12-07T01:13:05.695Z,68.65
2023-12-07T01:15:33.793Z,77.47
2023-12-07T01:18:02.266Z,74.28
2023-12-07T01:20:30.343Z,67.50
2023-12-07T01:22:58.405Z,71.88
2023-12-07T01:25:26.790Z,79.28
2023-12-07T01:27:56.483Z,75.20
2023-12-07T01:30:24.749Z,70.80
2023-12-07T01:32:52.987Z,70.57
2023-12-07T01:35:21.409Z,68.97
2023-12-07T01:37:49.526Z,65.97
2023-12-07T01:40:18.120Z,65.38
2023-12-07T01:42:52.217Z,60.47
2023-12-07T01:45:21.995Z,71.53
2023-12-07T01:47:51.893Z,65.80
2023-12-07T01:50:24.786Z,70.82
2023-12-07T01:52:57.130Z,72.47
2023-12-07T01:55:25.796Z,68.30
2023-12-07T01:57:54.235Z,64.13
2023-12-07T02:00:23.950Z,62.85
2023-12-07T02:02:53.267Z,66.78
2023-12-07T02:05:21.586Z,60.63
2023-12-07T02:07:50.307Z,53.38
2023-12-07T02:10:20.073Z,55.88
2023-12-07T02:12:48.826Z,61.88
2023-12-07T02:15:17.085Z,51.08
2023-12-07T02:17:52.076Z,51.28
2023-12-07T02:20:25.694Z,51.85
2023-12-07T02:22:55.565Z,48.78
2023-12-07T02:25:26.885Z,46.13
2023-12-07T02:27:56.466Z,51.78
2023-12-07T02:30:24.619Z,49.22
2023-12-07T02:32:53.056Z,54.55
2023-12-07T02:35:21.291Z,51.33
2023-12-07T02:37:51.950Z,52.42
2023-12-07T02:40:23.180Z,58.15
2023-12-07T02:42:51.955Z,56.08
2023-12-07T02:45:21.645Z,63.95
2023-12-07T02:47:49.948Z,63.55
2023-12-07T02:50:18.544Z,63.90
2023-12-07T02:52:46.922Z,51.55
2023-12-07T02:55:15.311Z,51.33
2023-12-07T02:57:44.033Z,44.92
2023-12-07T03:00:15.250Z,58.45
2023-12-07T03:02:44.871Z,50.03
2023-12-07T03:05:12.984Z,57.55
2023-12-07T03:07:41.336Z,61.35
2023-12-07T03:10:10.266Z,55.20
2023-12-07T03:12:38.487Z,54.05
2023-12-07T03:15:07.815Z,60.08
2023-12-07T03:17:35.921Z,56.50
2023-12-07T03:20:06.548Z,47.05
2023-12-07T03:22:35.624Z,42.88
2023-12-07T03:25:04.305Z,39.20
2023-12-07T03:27:32.812Z,47.00
2023-12-07T03:30:00.902Z,57.88
2023-12-07T03:32:29.429Z,55.13
2023-12-07T03:34:57.713Z,50.67
2023-12-07T03:37:28.257Z,44.17
2023-12-07T03:39:56.749Z,63.08
2023-12-07T03:42:49.752Z,56.33
2023-12-07T03:45:13.247Z,54.40
2023-12-07T03:47:41.630Z,50.85
2023-12-07T03:50:10.302Z,40.28
2023-12-07T03:52:39.732Z,47.90
2023-12-07T03:55:09.520Z,39.08
2023-12-07T03:57:37.731Z,41.40
2023-12-07T04:00:08.807Z,48.92
2023-12-07T04:02:36.869Z,35.45
2023-12-07T04:05:05.542Z,31.25
2023-12-07T04:07:33.761Z,38.65
2023-12-07T04:10:06.610Z,39.80
2023-12-07T04:12:34.882Z,44.17
2023-12-07T04:15:03.465Z,43.83
2023-12-07T04:17:31.762Z,46.88
2023-12-07T04:20:00.064Z,38.60
2023-12-07T04:22:28.546Z,40.58
2023-12-07T04:24:56.846Z,37.85
2023-12-07T04:27:26.731Z,32.60
2023-12-07T04:29:55.237Z,41.05
2023-12-07T04:32:23.803Z,36.10
2023-12-07T04:34:52.047Z,33.17
2023-12-07T04:37:20.447Z,33.10
2023-12-07T04:39:49.051Z,29.27
2023-12-07T04:42:17.124Z,40.85
2023-12-07T04:44:46.779Z,32.67
2023-12-07T04:47:15.074Z,42.90
2023-12-07T04:49:43.418Z,32.70
2023-12-07T04:52:11.940Z,36.63
2023-12-07T04:54:40.506Z,26.67
2023-12-07T04:57:08.789Z,34.17
2023-12-07T04:59:38.752Z,31.83
2023-12-07T05:02:09.260Z,38.47
2023-12-07T05:04:37.489Z,38.75
2023-12-07T05:07:06.098Z,31.08
2023-12-07T05:09:34.263Z,40.08
2023-12-07T05:12:02.635Z,35.13
2023-12-07T05:14:30.842Z,32.50
2023-12-07T05:16:59.149Z,29.55
2023-12-07T05:19:29.097Z,31.42
2023-12-07T05:21:57.284Z,32.38
2023-12-07T05:24:25.790Z,31.58
2023-12-07T05:26:53.989Z,27.33
2023-12-07T05:29:22.225Z,26.13
2023-12-07T05:31:51.849Z,34.22
2023-12-07T05:34:20.070Z,31.77
2023-12-07T05:36:49.774Z,27.02
2023-12-07T05:39:19.833Z,26.92
2023-12-07T05:41:48.639Z,35.85
2023-12-07T05:44:22.648Z,34.28
2023-12-07T05:46:51.083Z,34.80
2023-12-07T05:49:19.381Z,27.05
2023-12-07T05:51:48.844Z,31.33
2023-12-07T05:54:16.965Z,30.70
2023-12-07T05:56:45.844Z,32.15
2023-12-07T05:59:14.147Z,34.42
2023-12-07T06:01:42.745Z,30.38
2023-12-07T06:04:11.890Z,26.63
2023-12-07T06:06:40.051Z,39.38
2023-12-07T06:09:09.785Z,25.98
2023-12-07T06:11:37.903Z,27.08
2023-12-07T06:14:07.488Z,32.95
2023-12-07T06:16:36.777Z,24.98
2023-12-07T06:19:05.864Z,27.75
2023-12-07T06:21:34.278Z,23.58
2023-12-07T06:24:02.728Z,24.83
2023-12-07T06:26:32.216Z,34.53
2023-12-07T06:29:00.547Z,29.58
2023-12-07T06:31:28.907Z,41.72
2023-12-07T06:33:57.309Z,33.65
2023-12-07T06:36:27.289Z,39.63
2023-12-07T06:38:56.589Z,36.85
2023-12-07T06:41:25.106Z,29.05
2023-12-07T06:43:56.963Z,25.73
2023-12-07T06:46:25.226Z,32.40
2023-12-07T06:48:54.194Z,35.90
2023-12-07T06:51:22.489Z,34.10
2023-12-07T06:53:51.179Z,31.33
2023-12-07T06:56:19.429Z,31.75
2023-12-07T06:58:47.565Z,36.88
2023-12-07T07:01:17.397Z,33.92
2023-12-07T07:03:45.711Z,36.00
2023-12-07T07:06:13.774Z,40.17
2023-12-07T07:08:41.907Z,36.03
2023-12-07T07:11:15.306Z,42.30
2023-12-07T07:13:44.072Z,33.45
2023-12-07T07:16:12.283Z,41.10
2023-12-07T07:18:42.519Z,35.90
2023-12-07T07:21:10.679Z,32.90
2023-12-07T07:23:39.386Z,38.45
2023-12-07T07:26:07.800Z,36.33
2023-12-07T07:28:36.055Z,45.83
2023-12-07T07:31:05.027Z,39.60
2023-12-07T07:33:33.298Z,27.05
2023-12-07T07:36:03.696Z,33.67
2023-12-07T07:38:31.904Z,30.17
2023-12-07T07:41:00.246Z,31.15
2023-12-07T07:43:29.161Z,32.80
2023-12-07T07:45:57.631Z,21.30
2023-12-07T07:48:27.180Z,28.77
2023-12-07T07:50:55.318Z,26.65
2023-12-07T07:53:24.762Z,36.17
2023-12-07T07:55:53.770Z,25.90
2023-12-07T07:58:22.506Z,31.67
2023-12-07T08:00:51.734Z,27.63
2023-12-07T08:03:20.136Z,33.17
2023-12-07T08:05:48.358Z,27.80
2023-12-07T08:08:16.792Z,30.10
2023-12-07T08:10:54.528Z,32.20
2023-12-07T08:13:25.376Z,30.08
2023-12-07T08:15:56.854Z,29.77
2023-12-07T08:18:27.574Z,30.45
2023-12-07T08:20:56.212Z,32.10
2023-12-07T08:23:24.535Z,29.60
2023-12-07T08:25:54.473Z,30.15
2023-12-07T08:28:23.651Z,44.55
2023-12-07T08:30:51.679Z,49.03
2023-12-07T08:33:20.049Z,33.80
2023-12-07T08:35:50.555Z,33.45
2023-12-07T08:38:18.803Z,25.58
2023-12-07T08:40:47.298Z,38.00
2023-12-07T08:43:16.911Z,41.95
2023-12-07T08:45:45.251Z,75.75
2023-12-07T08:48:13.804Z,53.20
2023-12-07T08:50:42.357Z,50.53
2023-12-07T08:53:10.808Z,34.92
2023-12-07T08:55:39.003Z,24.67
2023-12-07T08:58:07.219Z,25.35
2023-12-07T09:00:37.298Z,20.15
2023-12-07T09:03:05.472Z,25.77
2023-12-07T09:05:34.023Z,22.30
2023-12-07T09:08:02.533Z,21.25
2023-12-07T09:10:30.723Z,24.75
2023-12-07T09:12:59.060Z,23.65
2023-12-07T09:15:27.113Z,19.92
2023-12-07T09:17:56.956Z,23.92
2023-12-07T09:20:25.853Z,24.20
2023-12-07T09:22:56.471Z,25.35
2023-12-07T09:25:24.667Z,28.85
2023-12-07T09:27:52.751Z,24.00
2023-12-07T09:30:21.426Z,27.38
2023-12-07T09:32:49.601Z,28.95
2023-12-07T09:35:21.630Z,27.98
2023-12-07T09:37:51.417Z,26.52
2023-12-07T09:40:22.259Z,25.67
2023-12-07T09:42:51.415Z,22.42
2023-12-07T09:45:21.904Z,18.63
2023-12-07T09:47:51.628Z,19.10
2023-12-07T09:50:23.579Z,18.95
2023-12-07T09:53:00.958Z,20.30
2023-12-07T09:55:38.174Z,33.90
2023-12-07T09:58:08.414Z,18.05
2023-12-07T10:00:38.059Z,21.10
2023-12-07T10:03:09.950Z,20.98
2023-12-07T10:05:58.756Z,20.27
2023-12-07T10:08:30.998Z,18.35
2023-12-07T10:11:09.690Z,16.35
2023-12-07T10:13:38.846Z,18.85
2023-12-07T10:16:11.736Z,15.88
2023-12-07T10:21:13.638Z,13.57
2023-12-07T10:23:44.586Z,13.73
2023-12-07T10:26:12.983Z,14.98
2023-12-07T10:28:41.995Z,13.75
2023-12-07T10:31:11.512Z,11.48
2023-12-07T10:33:39.977Z,14.05
2023-12-07T10:36:09.795Z,15.82
2023-12-07T10:38:42.865Z,14.55
2023-12-07T10:41:13.552Z,18.02
2023-12-07T10:43:45.903Z,16.30
2023-12-07T10:46:17.746Z,18.25
2023-12-07T10:48:48.620Z,19.93
2023-12-07T10:51:20.941Z,20.30
2023-12-07T10:53:51.131Z,25.15
2023-12-07T10:56:27.258Z,20.73
2023-12-07T10:58:57.491Z,20.75
2023-12-07T11:01:26.471Z,18.40
2023-12-07T11:03:55.659Z,20.10
2023-12-07T11:06:24.520Z,14.68
2023-12-07T11:08:56.993Z,16.27
2023-12-07T11:11:30.805Z,14.38
2023-12-07T11:14:01.483Z,15.95
2023-12-07T11:16:33.739Z,14.45
2023-12-07T11:19:02.149Z,16.20
2023-12-07T11:21:30.555Z,16.90
2023-12-07T11:24:02.209Z,12.77
2023-12-07T11:26:30.559Z,13.48
2023-12-07T11:28:58.947Z,13.70
2023-12-07T11:31:28.279Z,15.93
2023-12-07T11:33:57.129Z,12.60
2023-12-07T11:36:25.755Z,15.73
2023-12-07T11:39:29.846Z,15.90
2023-12-07T11:42:09.322Z,16.40
2023-12-07T11:44:39.208Z,12.30
2023-12-07T11:47:07.932Z,13.77
2023-12-07T11:49:37.190Z,10.73
2023-12-07T11:52:16.050Z,11.52
2023-12-07T11:54:48.159Z,11.18
2023-12-07T11:57:17.001Z,11.60
2023-12-07T11:59:46.374Z,10.85
2023-12-07T12:02:15.072Z,11.30
2023-12-07T12:04:44.167Z,11.23
2023-12-07T12:07:13.028Z,9.10
2023-12-07T12:09:42.030Z,10.13
2023-12-07T12:12:12.015Z,7.65
2023-12-07T12:14:40.343Z,7.82
2023-12-07T12:17:08.459Z,8.50
2023-12-07T12:19:38.039Z,7.22
2023-12-07T12:22:08.530Z,8.88
2023-12-07T12:24:38.094Z,7.32
2023-12-07T12:27:06.970Z,12.48
2023-12-07T12:29:36.774Z,8.48
2023-12-07T12:32:06.877Z,8.32
2023-12-07T12:34:36.174Z,7.40
2023-12-07T12:37:06.754Z,10.52
2023-12-07T12:39:36.117Z,6.38
2023-12-07T12:42:06.229Z,7.82
2023-12-07T12:44:38.080Z,9.20
2023-12-07T12:47:09.449Z,9.02
2023-12-07T12:49:39.270Z,7.57
2023-12-07T12:52:12.719Z,10.30
2023-12-07T12:54:41.437Z,9.02
2023-12-07T12:57:09.971Z,8.43
2023-12-07T12:59:39.611Z,7.82
2023-12-07T13:02:09.225Z,7.43
2023-12-07T13:04:41.453Z,6.93
2023-12-07T13:07:11.018Z,8.10
2023-12-07T13:09:39.596Z,6.13
2023-12-07T13:12:08.886Z,5.65
2023-12-07T13:14:39.592Z,9.27
2023-12-07T13:17:10.067Z,6.43
2023-12-07T13:19:38.657Z,7.68
2023-12-07T13:22:07.654Z,6.30
2023-12-07T13:24:36.271Z,6.00
2023-12-07T13:27:04.803Z,11.45
2023-12-07T13:29:36.380Z,10.15
2023-12-07T13:32:06.208Z,13.35
2023-12-07T13:34:36.326Z,6.85
2023-12-07T13:37:04.930Z,6.65
2023-12-07T13:39:33.452Z,6.28
2023-12-07T13:42:04.233Z,6.70
2023-12-07T13:44:34.548Z,9.30
2023-12-07T13:47:03.577Z,6.72
2023-12-07T13:49:33.890Z,7.70
2023-12-07T13:52:07.634Z,8.85
2023-12-07T13:57:09.914Z,11.05
2023-12-07T13:59:40.679Z,13.73
2023-12-07T14:02:09.029Z,13.77
2023-12-07T14:04:37.294Z,15.63
2023-12-07T14:07:25.235Z,14.70
2023-12-07T14:09:58.569Z,16.88
2023-12-07T14:12:29.811Z,16.48
2023-12-07T14:14:59.186Z,18.05
2023-12-07T14:17:32.854Z,14.20
2023-12-07T14:20:16.397Z,14.73
2023-12-07T14:22:57.876Z,13.52
2023-12-07T14:25:26.454Z,13.65
2023-12-07T14:27:54.669Z,11.63
2023-12-07T14:30:23.474Z,12.85
2023-12-07T14:32:54.288Z,14.73
2023-12-07T14:35:23.670Z,13.48
2023-12-07T14:37:52.032Z,13.10
2023-12-07T14:40:21.786Z,13.60
2023-12-07T14:42:49.994Z,12.43
2023-12-07T14:45:21.969Z,13.98
2023-12-07T14:47:50.613Z,13.85
2023-12-07T14:50:19.171Z,17.45
2023-12-07T14:52:47.940Z,10.10
2023-12-07T14:55:16.208Z,11.57
2023-12-07T14:57:45.692Z,10.80
2023-12-07T15:00:15.026Z,12.05
2023-12-07T15:02:43.603Z,12.02
2023-12-07T15:05:12.059Z,16.52
2023-12-07T15:07:40.622Z,18.25
2023-12-07T15:10:10.002Z,19.05
2023-12-07T15:12:38.497Z,18.02
2023-12-07T15:15:10.594Z,14.10
2023-12-07T15:17:39.235Z,14.27
2023-12-07T15:20:09.904Z,11.98
2023-12-07T15:22:38.367Z,15.02
2023-12-07T15:25:07.132Z,19.75
2023-12-07T15:27:35.239Z,16.50
2023-12-07T15:30:08.211Z,18.17
2023-12-07T15:32:38.308Z,23.60
2023-12-07T15:35:07.738Z,16.15
2023-12-07T15:37:36.037Z,14.82
2023-12-07T15:40:05.373Z,18.65
2023-12-07T15:42:33.544Z,19.08
2023-12-07T15:45:02.646Z,22.20
2023-12-07T15:47:35.479Z,21.80
2023-12-07T15:50:06.423Z,17.73
2023-12-07T15:52:35.459Z,15.85
2023-12-07T15:55:04.034Z,16.80
2023-12-07T15:57:33.515Z,19.23
2023-12-07T16:00:02.640Z,20.23
2023-12-07T16:02:34.698Z,18.30
2023-12-07T16:05:07.718Z,18.23
2023-12-07T16:07:40.473Z,21.80
2023-12-07T16:12:40.283Z,20.08
2023-12-07T16:15:10.538Z,20.42
2023-12-07T16:17:39.845Z,21.80
2023-12-07T16:20:12.502Z,21.30
2023-12-07T16:25:10.612Z,19.60
2023-12-07T16:27:41.229Z,21.73
2023-12-07T16:30:14.007Z,17.17
2023-12-07T16:35:14.636Z,19.85
2023-12-07T16:37:44.152Z,18.30
2023-12-07T16:40:13.233Z,21.73
2023-12-07T16:42:43.025Z,22.65
2023-12-07T16:45:13.749Z,17.60
2023-12-07T16:47:42.194Z,24.33
2023-12-07T16:50:13.375Z,22.45
2023-12-07T16:52:51.924Z,22.13
2023-12-07T16:55:23.991Z,21.45
2023-12-07T16:57:52.262Z,19.25
2023-12-07T17:00:20.737Z,18.83
2023-12-07T17:02:49.064Z,20.83
2023-12-07T17:05:18.630Z,19.73
2023-12-07T17:07:46.792Z,21.73
2023-12-07T17:10:14.954Z,20.40
2023-12-07T17:12:43.084Z,16.65
2023-12-07T17:15:13.516Z,18.77
2023-12-07T17:17:42.078Z,17.13
2023-12-07T17:20:10.767Z,19.15
2023-12-07T17:22:40.718Z,18.60
2023-12-07T17:25:09.703Z,18.23
2023-12-07T17:27:38.282Z,19.67
2023-12-07T17:30:07.781Z,19.40
2023-12-07T17:32:36.041Z,19.38
2023-12-07T17:35:04.277Z,22.17
2023-12-07T17:37:32.463Z,20.15
2023-12-07T17:40:02.033Z,19.08
2023-12-07T17:42:30.797Z,20.75
2023-12-07T17:44:59.165Z,23.70
2023-12-07T17:47:28.239Z,22.02
2023-12-07T17:49:56.671Z,21.15
2023-12-07T17:52:24.950Z,17.85
2023-12-07T17:54:53.436Z,23.00
2023-12-07T17:57:23.461Z,19.15
2023-12-07T17:59:52.190Z,18.40
2023-12-07T18:02:20.715Z,20.83
2023-12-07T18:04:49.325Z,18.80
2023-12-07T18:07:18.107Z,20.70
2023-12-07T18:09:46.527Z,18.95
2023-12-07T18:12:15.173Z,19.67
2023-12-07T18:14:44.809Z,19.85
2023-12-07T18:17:13.062Z,21.15
2023-12-07T18:19:41.191Z,19.55
2023-12-07T18:22:09.368Z,18.42
2023-12-07T18:24:37.650Z,19.92
2023-12-07T18:27:06.250Z,18.92
2023-12-07T18:29:35.366Z,22.80
2023-12-07T18:32:07.277Z,21.38
2023-12-07T18:34:35.708Z,18.73
2023-12-07T18:37:05.138Z,19.75
2023-12-07T18:39:33.879Z,22.88
2023-12-07T18:42:02.213Z,22.02
2023-12-07T18:44:30.389Z,18.02
2023-12-07T18:46:58.624Z,16.33
2023-12-07T18:49:28.410Z,17.13
2023-12-07T18:51:56.970Z,25.85
2023-12-07T18:54:25.220Z,15.48
2023-12-07T18:56:53.890Z,24.77
2023-12-07T18:59:22.904Z,17.52
2023-12-07T19:01:51.001Z,17.00
2023-12-07T19:04:19.138Z,20.23
2023-12-07T19:06:48.708Z,16.20
2023-12-07T19:09:21.703Z,18.95
2023-12-07T19:11:50.147Z,18.48
2023-12-07T19:14:18.619Z,25.27
2023-12-07T19:16:46.718Z,29.63
2023-12-07T19:19:15.575Z,24.48
2023-12-07T19:21:44.562Z,22.90
2023-12-07T19:24:14.128Z,31.23
2023-12-07T19:26:43.273Z,21.05
2023-12-07T19:29:12.330Z,26.52
2023-12-07T19:31:40.085Z,25.60
2023-12-07T19:34:09.564Z,19.25
2023-12-07T19:36:43.849Z,32.05
2023-12-07T19:39:14.356Z,27.05
2023-12-07T19:41:43.064Z,15.27
2023-12-07T19:44:11.957Z,15.80
2023-12-07T19:46:40.345Z,14.35
2023-12-07T19:49:09.224Z,15.20
2023-12-07T19:51:37.685Z,16.08
2023-12-07T19:54:06.025Z,14.80
2023-12-07T19:56:36.089Z,12.27
2023-12-07T19:59:04.563Z,13.48
2023-12-07T20:01:32.634Z,14.60
2023-12-07T20:04:01.165Z,14.60
2023-12-07T20:06:34.344Z,13.82
2023-12-07T20:09:09.631Z,15.93
2023-12-07T20:11:39.598Z,14.52
2023-12-07T20:14:07.799Z,16.38
2023-12-07T20:16:35.926Z,17.50
2023-12-07T20:19:04.709Z,14.13
2023-12-07T20:21:34.340Z,14.60
2023-12-07T20:24:02.596Z,14.15
2023-12-07T20:26:30.800Z,16.63
2023-12-07T20:29:01.747Z,19.20
2023-12-07T20:31:30.121Z,16.40
2023-12-07T20:33:58.702Z,20.52
2023-12-07T20:36:26.952Z,17.45
2023-12-07T20:38:55.252Z,18.90
2023-12-07T20:41:23.641Z,20.17
2023-12-07T20:43:51.757Z,18.02
2023-12-07T20:46:21.552Z,29.25
2023-12-07T20:48:49.880Z,36.63
2023-12-07T20:51:18.244Z,21.77
2023-12-07T20:53:46.555Z,19.50
2023-12-07T20:56:18.806Z,25.58
2023-12-07T20:58:47.407Z,18.08
2023-12-07T21:01:16.394Z,18.70
2023-12-07T21:03:46.279Z,18.73
2023-12-07T21:06:25.876Z,15.40
2023-12-07T21:08:55.877Z,16.90
2023-12-07T21:11:24.309Z,16.02
2023-12-07T21:13:52.461Z,16.70
2023-12-07T21:16:20.647Z,17.55
2023-12-07T21:18:50.308Z,15.77
2023-12-07T21:21:18.688Z,18.52
2023-12-07T21:23:46.859Z,20.30
2023-12-07T21:26:15.008Z,18.10
2023-12-07T21:28:43.227Z,18.27
2023-12-07T21:31:11.690Z,20.45
2023-12-07T21:33:40.716Z,17.55
2023-12-07T21:36:12.382Z,20.23
2023-12-07T21:38:42.471Z,20.88
2023-12-07T21:41:11.293Z,22.13
2023-12-07T21:43:39.429Z,19.00
2023-12-07T21:46:07.895Z,22.83
2023-12-07T21:48:36.375Z,20.58
2023-12-07T21:51:06.844Z,25.40
2023-12-07T21:53:36.530Z,20.80
2023-12-07T21:56:06.155Z,21.10
2023-12-07T21:58:34.451Z,21.42
2023-12-07T22:01:03.154Z,18.58
2023-12-07T22:03:31.243Z,22.05
2023-12-07T22:05:59.433Z,17.52
2023-12-07T22:08:27.927Z,16.92
2023-12-07T22:10:58.133Z,25.85
2023-12-07T22:13:26.608Z,21.60
2023-12-07T22:15:55.451Z,21.90
2023-12-07T22:18:24.364Z,23.00
2023-12-07T22:20:52.914Z,20.83
2023-12-07T22:23:22.976Z,24.15
2023-12-07T22:25:51.199Z,23.85
2023-12-07T22:28:21.268Z,25.65
2023-12-07T22:30:49.714Z,27.65
2023-12-07T22:33:18.264Z,27.27
2023-12-07T22:35:46.931Z,21.63
2023-12-07T22:38:15.143Z,21.70
2023-12-07T22:40:43.972Z,26.25
2023-12-07T22:43:12.111Z,25.98
2023-12-07T22:45:41.910Z,26.05
2023-12-07T22:48:10.106Z,23.60
2023-12-07T22:50:38.767Z,22.73
2023-12-07T22:53:07.117Z,19.92
2023-12-07T22:55:35.424Z,23.80
2023-12-07T22:58:03.655Z,23.05
2023-12-07T23:00:32.263Z,25.98
2023-12-07T23:03:02.066Z,22.05
2023-12-07T23:05:30.503Z,22.38
2023-12-07T23:07:58.653Z,25.90
2023-12-07T23:10:27.231Z,22.63
2023-12-07T23:12:55.545Z,21.45
2023-12-07T23:15:23.794Z,21.15
2023-12-07T23:17:52.262Z,21.77
2023-12-07T23:20:22.267Z,27.67
2023-12-07T23:22:50.544Z,22.90
2023-12-07T23:25:20.027Z,23.98
2023-12-07T23:27:48.961Z,35.72
2023-12-07T23:30:17.214Z,24.50
2023-12-07T23:32:46.170Z,23.17
2023-12-07T23:35:14.491Z,24.63
2023-12-07T23:37:44.264Z,23.60
2023-12-07T23:40:13.461Z,24.40
2023-12-07T23:42:41.866Z,26.70
2023-12-07T23:45:11.436Z,20.80
2023-12-07T23:47:40.613Z,18.42
2023-12-07T23:50:10.113Z,19.10
2023-12-07T23:52:38.692Z,21.02
2023-12-07T23:55:10.742Z,20.40
2023-12-07T23:57:39.235Z,20.38
